Time;durP1;ratioP1;P1;durP2;ratioP2;P2;SDS_P1;SDS_P2;PMS_P1;PMS_P2;Temp;Humidity;BMP_temperature;BMP_pressure;BME280_temperature;BME280_humidity;BME280_pressure;Samples;Min_cycle;Max_cycle;Signal;HPM_P1;HPM_P2
2020/12/22 00:02:24;;;;;;;8.75;5.18;;;7.00;95.60;;;;;;5047926;28;27409;-46
2020/12/22 00:05:10;;;;;;;7.57;5.63;;;7.00;95.60;;;;;;5047561;28;27447;-45
2020/12/22 00:07:55;;;;;;;8.85;5.30;;;7.00;95.60;;;;;;5065761;28;27608;-45
2020/12/22 00:10:40;;;;;;;8.43;6.03;;;7.00;95.60;;;;;;5066104;28;27420;-46
2020/12/22 00:13:24;;;;;;;6.53;4.72;;;7.00;95.50;;;;;;5066000;28;27550;-47
2020/12/22 00:16:09;;;;;;;7.50;5.32;;;7.00;95.50;;;;;;5065451;28;27608;-45
2020/12/22 00:18:54;;;;;;;5.55;4.35;;;7.00;95.50;;;;;;5065621;28;27478;-44
2020/12/22 00:21:38;;;;;;;8.35;4.50;;;7.00;95.50;;;;;;5064898;28;27621;-45
2020/12/22 00:24:23;;;;;;;6.07;4.40;;;7.00;95.60;;;;;;5065822;28;27445;-44
2020/12/22 00:27:08;;;;;;;6.75;4.75;;;7.10;95.60;;;;;;5065402;28;27428;-44
2020/12/22 00:29:53;;;;;;;6.35;4.55;;;7.10;95.50;;;;;;5065324;28;27451;-45
2020/12/22 00:32:38;;;;;;;5.00;4.00;;;7.10;95.50;;;;;;5065746;28;27491;-45
2020/12/22 00:35:22;;;;;;;5.38;4.32;;;7.10;95.50;;;;;;5065509;28;27474;-44
2020/12/22 00:38:07;;;;;;;4.60;3.72;;;7.10;95.50;;;;;;5065532;28;27515;-44
2020/12/22 00:40:51;;;;;;;5.45;3.65;;;7.10;95.50;;;;;;5065238;28;27488;-44
2020/12/22 00:43:36;;;;;;;5.93;3.65;;;7.10;95.50;;;;;;5065284;28;27484;-45
2020/12/22 00:46:20;;;;;;;5.25;3.97;;;7.20;95.50;;;;;;5065528;28;27336;-44
2020/12/22 00:49:05;;;;;;;4.45;3.53;;;7.20;95.50;;;;;;5063052;28;27341;-44
2020/12/22 00:51:50;;;;;;;4.63;3.50;;;7.20;95.60;;;;;;5046973;28;27388;-45
2020/12/22 00:54:35;;;;;;;5.03;3.42;;;7.20;95.60;;;;;;5074483;28;27304;-44
2020/12/22 00:57:20;;;;;;;4.57;3.00;;;7.30;95.80;;;;;;5081283;28;27386;-45
2020/12/22 01:00:16;;;;;;;4.65;3.38;;;7.30;96.00;;;;;;5081993;28;27415;-46
2020/12/22 01:03:01;;;;;;;3.70;2.75;;;7.30;96.00;;;;;;5085290;28;27483;-45
2020/12/22 01:05:45;;;;;;;4.60;2.40;;;7.30;96.10;;;;;;5085467;28;26947;-47
2020/12/22 01:08:30;;;;;;;4.35;3.08;;;7.40;96.20;;;;;;5085150;28;27417;-45
2020/12/22 01:11:14;;;;;;;3.38;2.20;;;7.40;96.30;;;;;;5085066;28;27332;-45
2020/12/22 01:13:59;;;;;;;4.15;2.80;;;7.40;96.50;;;;;;5085319;28;27332;-48
2020/12/22 01:16:43;;;;;;;2.58;2.17;;;7.40;96.50;;;;;;5084633;28;27340;-46
2020/12/22 01:19:28;;;;;;;5.05;2.42;;;7.50;96.50;;;;;;5085280;28;27392;-45
2020/12/22 01:22:13;;;;;;;2.78;2.17;;;7.50;96.50;;;;;;5084837;28;27332;-46
2020/12/22 01:24:58;;;;;;;3.33;2.30;;;7.50;96.50;;;;;;5080831;28;27324;-45
2020/12/22 01:27:43;;;;;;;2.72;2.08;;;7.50;96.50;;;;;;5085143;28;27379;-45
2020/12/22 01:30:28;;;;;;;2.63;2.03;;;7.50;96.70;;;;;;5081779;28;27352;-46
2020/12/22 01:33:13;;;;;;;2.45;1.85;;;7.50;96.30;;;;;;5083868;28;27392;-45
2020/12/22 01:35:57;;;;;;;2.30;2.10;;;7.60;96.40;;;;;;5084709;28;27402;-45
2020/12/22 01:38:42;;;;;;;2.17;1.75;;;7.60;96.40;;;;;;5084635;28;27390;-45
2020/12/22 01:41:34;;;;;;;3.42;2.20;;;7.60;96.40;;;;;;5084097;28;27341;-45
2020/12/22 01:44:19;;;;;;;2.35;1.90;;;7.60;96.30;;;;;;5084309;28;27459;-45
2020/12/22 01:47:03;;;;;;;2.28;1.50;;;7.60;96.40;;;;;;5084715;28;27532;-45
2020/12/22 01:49:47;;;;;;;2.15;1.63;;;7.60;96.50;;;;;;5084796;28;27489;-46
2020/12/22 01:52:32;;;;;;;2.63;1.58;;;7.70;96.50;;;;;;5084762;28;27578;-45
2020/12/22 01:55:17;;;;;;;3.90;1.60;;;7.70;96.50;;;;;;5080245;28;27473;-45
2020/12/22 01:58:01;;;;;;;1.88;1.50;;;7.70;96.50;;;;;;5084755;28;27590;-45
2020/12/22 02:00:46;;;;;;;1.67;1.30;;;7.70;96.40;;;;;;5084591;28;27335;-45
2020/12/22 02:03:30;;;;;;;1.13;1.02;;;7.70;96.40;;;;;;5083530;28;27371;-46
2020/12/22 02:06:15;;;;;;;1.17;1.08;;;7.70;96.40;;;;;;5084158;28;27339;-46
2020/12/22 02:09:00;;;;;;;2.20;1.17;;;7.70;96.50;;;;;;5084158;28;27382;-45
2020/12/22 02:11:45;;;;;;;2.05;1.02;;;7.80;96.60;;;;;;5083881;28;27406;-47
2020/12/22 02:14:29;;;;;;;1.20;1.05;;;7.80;96.60;;;;;;5084404;28;27391;-45
2020/12/22 02:17:14;;;;;;;2.30;1.00;;;7.80;96.50;;;;;;5083737;28;27884;-44
2020/12/22 02:19:59;;;;;;;1.70;1.15;;;7.80;96.50;;;;;;5083999;28;27391;-46
2020/12/22 02:22:43;;;;;;;1.08;0.95;;;7.80;96.60;;;;;;5084034;28;27385;-44
2020/12/22 02:25:28;;;;;;;1.60;0.90;;;7.80;96.60;;;;;;5084233;28;27377;-45
2020/12/22 02:28:13;;;;;;;1.50;1.02;;;7.80;96.60;;;;;;5084130;28;27407;-44
2020/12/22 02:31:02;;;;;;;1.52;1.05;;;7.90;96.70;;;;;;5083923;28;27384;-45
2020/12/22 02:33:46;;;;;;;1.48;1.20;;;7.90;96.70;;;;;;5084044;28;27591;-45
2020/12/22 02:36:34;;;;;;;2.25;1.42;;;7.90;96.70;;;;;;5082883;28;27399;-45
2020/12/22 02:39:19;;;;;;;1.45;1.25;;;7.90;96.80;;;;;;5083776;28;27538;-45
2020/12/22 02:42:03;;;;;;;1.58;1.10;;;7.90;96.80;;;;;;5083924;28;27462;-45
2020/12/22 02:44:48;;;;;;;1.73;1.10;;;8.00;96.90;;;;;;5071463;28;27490;-45
2020/12/22 02:47:33;;;;;;;0.90;0.80;;;8.00;97.00;;;;;;5087268;28;26891;-44
2020/12/22 02:50:18;;;;;;;1.08;0.80;;;8.00;97.00;;;;;;5087203;28;27448;-45
2020/12/22 02:53:03;;;;;;;0.65;0.60;;;8.00;97.00;;;;;;5084262;28;27443;-45
2020/12/22 02:55:48;;;;;;;0.80;0.80;;;8.00;97.00;;;;;;5066816;28;27459;-45
2020/12/22 02:58:32;;;;;;;1.00;0.90;;;8.00;96.90;;;;;;5067153;28;27471;-45
2020/12/22 03:01:18;;;;;;;1.13;0.88;;;8.10;97.00;;;;;;5067028;28;27494;-44
2020/12/22 03:04:02;;;;;;;1.25;0.88;;;8.10;97.10;;;;;;5066695;28;27467;-45
2020/12/22 03:06:47;;;;;;;1.38;0.80;;;8.10;97.00;;;;;;5066330;28;27461;-45
2020/12/22 03:09:32;;;;;;;1.60;0.70;;;8.10;97.10;;;;;;5066931;28;27427;-44
2020/12/22 03:12:16;;;;;;;0.90;0.50;;;8.20;97.10;;;;;;5066900;28;27533;-45
2020/12/22 03:15:02;;;;;;;0.60;0.50;;;8.20;97.20;;;;;;5066843;28;27414;-44
2020/12/22 03:17:46;;;;;;;1.80;0.75;;;8.20;97.20;;;;;;5066614;28;27342;-45
2020/12/22 03:20:31;;;;;;;1.23;0.52;;;8.20;97.10;;;;;;5066804;28;27306;-45
2020/12/22 03:23:16;;;;;;;0.38;0.38;;;8.20;97.00;;;;;;5066432;28;27344;-44
2020/12/22 03:26:00;;;;;;;0.47;0.40;;;8.30;97.00;;;;;;5051399;28;27333;-45
2020/12/22 03:28:45;;;;;;;0.65;0.65;;;8.30;97.10;;;;;;5066742;28;27361;-44
2020/12/22 03:31:29;;;;;;;0.77;0.70;;;8.30;97.20;;;;;;5066325;28;27566;-45
2020/12/22 03:34:14;;;;;;;0.50;0.50;;;8.30;97.30;;;;;;5066296;28;28035;-45
2020/12/22 03:36:59;;;;;;;0.43;0.43;;;8.30;97.30;;;;;;5065989;28;27531;-45
2020/12/22 03:39:44;;;;;;;0.50;0.40;;;8.40;97.30;;;;;;5051447;28;27352;-44
2020/12/22 03:42:29;;;;;;;0.75;0.60;;;8.40;97.20;;;;;;5066457;28;27325;-44
2020/12/22 03:45:16;;;;;;;1.58;0.38;;;8.40;97.20;;;;;;5066101;28;27337;-45
2020/12/22 03:48:01;;;;;;;0.40;0.40;;;8.40;97.20;;;;;;5066439;28;27555;-45
2020/12/22 03:50:46;;;;;;;0.30;0.30;;;8.40;97.30;;;;;;5066072;28;27396;-45
2020/12/22 03:53:31;;;;;;;0.30;0.30;;;8.40;97.20;;;;;;5065417;28;27408;-45
2020/12/22 03:56:15;;;;;;;0.57;0.40;;;8.40;97.30;;;;;;5064714;28;27321;-45
2020/12/22 03:59:00;;;;;;;0.30;0.30;;;8.40;97.30;;;;;;5065621;28;27361;-45
2020/12/22 04:01:44;;;;;;;0.10;0.10;;;8.50;97.40;;;;;;5062724;28;27346;-46
2020/12/22 04:04:29;;;;;;;0.57;0.40;;;8.50;97.40;;;;;;5066208;28;27379;-45
2020/12/22 04:07:13;;;;;;;2.33;0.22;;;8.50;97.30;;;;;;5066050;28;27392;-44
2020/12/22 04:09:58;;;;;;;1.55;0.28;;;8.50;97.40;;;;;;5065749;28;27357;-45
2020/12/22 04:12:42;;;;;;;0.20;0.20;;;8.50;97.40;;;;;;5065773;28;27381;-45
2020/12/22 04:15:27;;;;;;;2.65;0.20;;;8.50;97.40;;;;;;5065836;28;27340;-44
2020/12/22 04:18:11;;;;;;;0.20;0.20;;;8.50;97.40;;;;;;5065548;28;27985;-46
2020/12/22 04:20:57;;;;;;;0.22;0.22;;;8.60;97.30;;;;;;5065811;28;27509;-44
2020/12/22 04:23:42;;;;;;;0.32;0.32;;;8.60;97.30;;;;;;5065901;28;27401;-44
2020/12/22 04:26:27;;;;;;;0.35;0.25;;;8.60;97.20;;;;;;5065134;28;27398;-44
2020/12/22 04:29:12;;;;;;;0.20;0.20;;;8.60;97.20;;;;;;5062243;28;27399;-45
2020/12/22 04:31:57;;;;;;;0.22;0.20;;;8.60;97.30;;;;;;5065506;28;27497;-45
2020/12/22 04:34:41;;;;;;;2.10;0.35;;;8.60;97.30;;;;;;5065416;28;27497;-44
2020/12/22 04:37:26;;;;;;;0.45;0.40;;;8.60;97.20;;;;;;5065267;28;27472;-44
2020/12/22 04:40:10;;;;;;;0.30;0.30;;;8.60;97.60;;;;;;5065567;28;27494;-45
2020/12/22 04:42:54;;;;;;;0.38;0.38;;;8.70;97.70;;;;;;5065462;28;27419;-45
2020/12/22 04:45:39;;;;;;;0.20;0.20;;;8.70;97.40;;;;;;5065234;28;27458;-45
2020/12/22 04:48:23;;;;;;;0.40;0.40;;;8.70;97.30;;;;;;5065133;28;27539;-45
2020/12/22 04:51:11;;;;;;;0.90;0.40;;;8.70;97.20;;;;;;5050244;28;27974;-44
2020/12/22 04:53:55;;;;;;;1.48;0.40;;;8.70;97.20;;;;;;5064212;28;27660;-44
2020/12/22 04:56:40;;;;;;;0.52;0.45;;;8.70;97.20;;;;;;5064865;28;27480;-45
2020/12/22 04:59:24;;;;;;;0.35;0.30;;;8.70;97.20;;;;;;5065299;28;27411;-44
2020/12/22 05:02:09;;;;;;;0.60;0.30;;;8.80;97.20;;;;;;5061654;28;27913;-46
2020/12/22 05:04:53;;;;;;;0.40;0.40;;;8.70;97.10;;;;;;5035887;28;27393;-45
2020/12/22 05:07:39;;;;;;;0.65;0.40;;;8.70;97.10;;;;;;5064744;28;27473;-44
2020/12/22 05:10:24;;;;;;;0.20;0.20;;;8.70;97.10;;;;;;5065054;28;27454;-45
2020/12/22 05:13:12;;;;;;;0.70;0.40;;;8.80;97.20;;;;;;5050019;28;27538;-44
2020/12/22 05:15:56;;;;;;;1.45;0.30;;;8.70;97.20;;;;;;5064787;28;27420;-45
2020/12/22 05:18:41;;;;;;;0.30;0.30;;;8.70;97.20;;;;;;5064742;28;27540;-46
2020/12/22 05:21:25;;;;;;;0.40;0.40;;;8.70;97.30;;;;;;5064198;28;27491;-46
2020/12/22 05:24:10;;;;;;;0.30;0.30;;;8.80;97.30;;;;;;5049550;28;27506;-46
2020/12/22 05:26:55;;;;;;;0.50;0.28;;;8.70;97.30;;;;;;5035546;28;27432;-45
2020/12/22 05:29:39;;;;;;;0.25;0.20;;;8.80;97.30;;;;;;5049525;28;27494;-45
2020/12/22 05:32:25;;;;;;;0.20;0.20;;;8.80;97.70;;;;;;5049462;28;27455;-45
2020/12/22 05:35:13;;;;;;;0.30;0.30;;;8.80;97.40;;;;;;5049497;28;27431;-44
2020/12/22 05:37:58;;;;;;;0.40;0.30;;;8.80;97.40;;;;;;5064709;28;27348;-44
2020/12/22 05:40:42;;;;;;;1.52;0.20;;;8.80;97.50;;;;;;5035487;28;27492;-44
2020/12/22 05:43:27;;;;;;;0.20;0.20;;;8.80;97.50;;;;;;5064332;28;27355;-45
2020/12/22 05:46:11;;;;;;;1.17;0.30;;;8.80;97.40;;;;;;5063728;28;27611;-45
2020/12/22 05:49:06;;;;;;;0.30;0.30;;;8.80;97.40;;;;;;5064181;28;27463;-45
2020/12/22 05:51:51;;;;;;;0.30;0.20;;;8.90;97.40;;;;;;5064229;28;27475;-45
2020/12/22 05:54:35;;;;;;;0.65;0.30;;;8.90;97.40;;;;;;5060039;28;27513;-45
2020/12/22 05:57:21;;;;;;;0.20;0.17;;;8.90;97.50;;;;;;5083535;28;27969;-45
2020/12/22 06:00:14;;;;;;;0.25;0.13;;;8.90;97.50;;;;;;5084292;28;27485;-45
2020/12/22 06:03:03;;;;;;;1.75;0.50;;;8.90;97.40;;;;;;5080279;28;27503;-45
2020/12/22 06:05:48;;;;;;;0.90;0.30;;;8.90;97.30;;;;;;5083787;28;27328;-45
2020/12/22 06:08:32;;;;;;;1.15;0.20;;;8.90;97.30;;;;;;5084192;28;27347;-45
2020/12/22 06:11:16;;;;;;;0.30;0.30;;;8.90;97.40;;;;;;5084175;28;27487;-44
2020/12/22 06:14:03;;;;;;;1.58;0.30;;;9.00;97.50;;;;;;5083974;28;27446;-44
2020/12/22 06:16:48;;;;;;;0.32;0.22;;;9.00;97.40;;;;;;5080155;28;27443;-45
2020/12/22 06:19:38;;;;;;;1.40;0.30;;;9.00;97.40;;;;;;5083655;28;27845;-44
2020/12/22 06:22:23;;;;;;;0.20;0.20;;;9.00;97.40;;;;;;5080992;28;27481;-44
2020/12/22 06:25:07;;;;;;;0.55;0.30;;;9.00;97.50;;;;;;5080294;28;27432;-45
2020/12/22 06:27:52;;;;;;;1.33;0.30;;;9.00;97.50;;;;;;5069313;28;27388;-45
2020/12/22 06:30:38;;;;;;;0.82;0.30;;;9.00;97.50;;;;;;5083880;28;27330;-46
2020/12/22 06:33:24;;;;;;;0.32;0.32;;;9.00;97.60;;;;;;5083873;28;27492;-44
2020/12/22 06:36:13;;;;;;;0.30;0.30;;;9.10;97.60;;;;;;5083760;28;27417;-45
2020/12/22 06:38:59;;;;;;;1.67;0.40;;;9.10;97.90;;;;;;5083875;28;27335;-45
2020/12/22 06:41:44;;;;;;;1.40;0.63;;;9.10;97.60;;;;;;5083507;28;27873;-45
2020/12/22 06:44:29;;;;;;;0.63;0.30;;;9.10;97.40;;;;;;5084014;28;27526;-44
2020/12/22 06:47:14;;;;;;;0.20;0.20;;;9.10;97.40;;;;;;5083986;28;27320;-44
2020/12/22 06:49:59;;;;;;;1.60;0.30;;;9.10;97.40;;;;;;5083671;28;27409;-44
2020/12/22 06:52:43;;;;;;;0.95;0.52;;;9.10;97.40;;;;;;5083502;28;27344;-44
2020/12/22 06:55:50;;;;;;;0.20;0.20;;;9.20;97.50;;;;;;5063539;28;27408;-46
2020/12/22 06:58:42;;;;;;;1.15;0.30;;;9.20;97.40;;;;;;5060153;28;27336;-44
2020/12/22 07:01:27;;;;;;;0.25;0.25;;;9.20;97.40;;;;;;5063632;28;27412;-44
2020/12/22 07:04:19;;;;;;;1.55;0.28;;;9.20;97.40;;;;;;5063513;28;27947;-45
2020/12/22 07:07:03;;;;;;;0.90;0.40;;;9.20;97.40;;;;;;5063510;28;27433;-45
2020/12/22 07:09:48;;;;;;;1.08;0.38;;;9.20;97.30;;;;;;5062739;28;27487;-44
2020/12/22 07:12:33;;;;;;;0.25;0.20;;;9.20;97.40;;;;;;5048426;28;27499;-45
2020/12/22 07:15:20;;;;;;;0.75;0.43;;;9.20;97.40;;;;;;5048225;28;27458;-45
2020/12/22 07:18:12;;;;;;;0.40;0.40;;;9.30;97.40;;;;;;5048164;28;27482;-44
2020/12/22 07:20:57;;;;;;;0.15;0.15;;;9.30;97.40;;;;;;5045004;28;27513;-45
2020/12/22 07:23:42;;;;;;;0.68;0.40;;;9.30;97.40;;;;;;5034292;28;27403;-45
2020/12/22 07:26:26;;;;;;;2.28;0.30;;;9.30;97.40;;;;;;5048316;28;27869;-45
2020/12/22 07:29:11;;;;;;;0.40;0.40;;;9.30;97.50;;;;;;5048029;28;27340;-45
2020/12/22 07:31:55;;;;;;;1.30;0.30;;;9.40;97.40;;;;;;5050882;28;27456;-45
2020/12/22 07:34:40;;;;;;;0.30;0.30;;;9.40;97.40;;;;;;5066679;28;27316;-46
2020/12/22 07:37:25;;;;;;;0.60;0.60;;;9.50;97.30;;;;;;5065613;28;27384;-45
2020/12/22 07:40:10;;;;;;;0.32;0.32;;;9.40;97.20;;;;;;5066317;28;27374;-44
2020/12/22 07:43:05;;;;;;;2.45;0.40;;;9.50;97.30;;;;;;5066274;28;27408;-44
2020/12/22 07:45:50;;;;;;;0.32;0.30;;;9.50;97.30;;;;;;5066168;28;27337;-45
2020/12/22 07:48:35;;;;;;;0.20;0.20;;;9.50;97.20;;;;;;5066043;28;27394;-44
2020/12/22 07:51:19;;;;;;;0.57;0.30;;;9.60;97.10;;;;;;5051036;28;27417;-45
2020/12/22 07:54:05;;;;;;;0.43;0.30;;;9.60;97.20;;;;;;5065659;28;27674;-45
2020/12/22 07:56:49;;;;;;;3.83;0.30;;;9.60;97.20;;;;;;5066080;28;27318;-45
2020/12/22 07:59:34;;;;;;;0.22;0.22;;;9.70;97.10;;;;;;5051329;28;27381;-45
2020/12/22 08:02:25;;;;;;;0.20;0.20;;;9.70;96.90;;;;;;5065869;28;27411;-44
2020/12/22 08:05:13;;;;;;;0.20;0.20;;;9.70;96.90;;;;;;5065618;28;27508;-45
2020/12/22 08:07:58;;;;;;;0.32;0.30;;;9.70;96.80;;;;;;5065832;28;27329;-45
2020/12/22 08:10:42;;;;;;;0.55;0.30;;;9.80;96.70;;;;;;5065938;28;27977;-46
2020/12/22 08:13:31;;;;;;;0.95;0.30;;;9.80;96.70;;;;;;5065913;28;27422;-45
2020/12/22 08:16:15;;;;;;;0.55;0.30;;;9.80;96.60;;;;;;5065542;28;27388;-46
2020/12/22 08:19:01;;;;;;;0.40;0.30;;;9.80;96.60;;;;;;5065590;28;27383;-45
2020/12/22 08:21:46;;;;;;;0.22;0.20;;;9.90;96.60;;;;;;5050625;28;27340;-45
2020/12/22 08:24:35;;;;;;;0.30;0.30;;;9.90;96.70;;;;;;5050816;28;27392;-46
2020/12/22 08:27:19;;;;;;;0.47;0.38;;;10.00;96.50;;;;;;5065834;28;27495;-45
2020/12/22 08:30:24;;;;;;;0.20;0.15;;;10.00;96.20;;;;;;5065691;28;27447;-46
2020/12/22 08:33:09;;;;;;;1.75;0.50;;;10.10;96.10;;;;;;5064790;28;27467;-45
2020/12/22 08:35:53;;;;;;;0.10;0.10;;;10.10;96.10;;;;;;5036573;28;27550;-44
2020/12/22 08:38:38;;;;;;;0.32;0.32;;;10.20;96.00;;;;;;5065408;28;27464;-44
2020/12/22 08:41:23;;;;;;;0.30;0.30;;;10.20;96.00;;;;;;5064736;28;27424;-45
2020/12/22 08:44:08;;;;;;;1.95;0.50;;;10.30;96.00;;;;;;5065529;28;27345;-45
2020/12/22 08:46:54;;;;;;;0.52;0.40;;;10.30;95.80;;;;;;5065157;28;27440;-45
2020/12/22 08:49:39;;;;;;;0.35;0.25;;;10.30;95.70;;;;;;5061948;28;27417;-44
2020/12/22 08:52:23;;;;;;;0.30;0.30;;;10.30;95.70;;;;;;5061877;28;27429;-45
2020/12/22 08:55:10;;;;;;;1.27;0.40;;;10.40;95.50;;;;;;5064387;28;27444;-46
2020/12/22 08:58:03;;;;;;;0.30;0.30;;;10.50;95.30;;;;;;5065271;28;27424;-46
2020/12/22 09:00:48;;;;;;;2.50;0.32;;;10.60;95.20;;;;;;5065039;28;27409;-45
2020/12/22 09:03:33;;;;;;;1.63;0.40;;;10.60;95.10;;;;;;5065217;28;27451;-45
2020/12/22 09:06:18;;;;;;;0.25;0.25;;;10.60;95.10;;;;;;5036114;28;27889;-44
2020/12/22 09:09:05;;;;;;;0.95;0.40;;;10.60;95.10;;;;;;5065058;28;27499;-45
2020/12/22 09:11:49;;;;;;;0.57;0.30;;;10.60;95.10;;;;;;5065151;28;27584;-45
2020/12/22 09:14:39;;;;;;;0.75;0.30;;;10.70;95.10;;;;;;5049918;28;27451;-46
2020/12/22 09:17:27;;;;;;;2.08;0.35;;;10.60;95.10;;;;;;5064366;28;27402;-46
2020/12/22 09:20:18;;;;;;;1.05;0.55;;;10.60;95.20;;;;;;5064914;28;27517;-46
2020/12/22 09:23:05;;;;;;;0.40;0.35;;;10.60;95.20;;;;;;5064651;28;27380;-46
2020/12/22 09:25:50;;;;;;;0.40;0.35;;;10.60;95.20;;;;;;5064364;28;27567;-46
2020/12/22 09:28:34;;;;;;;1.70;0.40;;;10.60;95.30;;;;;;5064775;28;27825;-45
2020/12/22 09:31:25;;;;;;;0.75;0.52;;;10.70;95.30;;;;;;5064710;28;27349;-45
2020/12/22 09:34:10;;;;;;;0.68;0.32;;;10.70;95.30;;;;;;5064778;28;27476;-46
2020/12/22 09:36:56;;;;;;;0.60;0.50;;;10.70;95.20;;;;;;5064160;28;27468;-45
2020/12/22 09:39:41;;;;;;;0.65;0.40;;;10.80;95.20;;;;;;5064516;28;27465;-45
2020/12/22 09:42:27;;;;;;;0.82;0.50;;;10.80;95.20;;;;;;5064203;28;27484;-46
2020/12/22 09:45:12;;;;;;;1.23;0.45;;;10.90;95.00;;;;;;5064502;28;27487;-44
2020/12/22 09:47:56;;;;;;;0.40;0.40;;;11.00;94.90;;;;;;5064428;28;27451;-45
2020/12/22 09:50:41;;;;;;;0.60;0.47;;;11.10;94.80;;;;;;5046304;28;27455;-45
2020/12/22 09:53:25;;;;;;;1.25;0.60;;;11.20;94.60;;;;;;5062327;28;27440;-45
2020/12/22 09:56:10;;;;;;;0.77;0.70;;;11.30;94.40;;;;;;5064059;28;27471;-46
2020/12/22 09:58:54;;;;;;;0.43;0.35;;;11.40;94.20;;;;;;5064202;28;27411;-45
2020/12/22 10:01:39;;;;;;;1.83;0.40;;;11.50;94.40;;;;;;5064328;28;27411;-45
2020/12/22 10:04:23;;;;;;;0.73;0.52;;;11.60;93.90;;;;;;5064314;28;27507;-46
2020/12/22 10:07:08;;;;;;;0.70;0.47;;;11.70;93.70;;;;;;5064334;28;27468;-48
2020/12/22 10:09:52;;;;;;;2.75;0.50;;;11.80;93.60;;;;;;5064272;28;27488;-48
2020/12/22 10:12:37;;;;;;;1.02;0.60;;;11.90;93.20;;;;;;5064241;28;27386;-44
2020/12/22 10:15:22;;;;;;;1.10;0.63;;;12.00;92.90;;;;;;5064164;28;27463;-47
2020/12/22 10:18:09;;;;;;;0.82;0.50;;;12.00;92.80;;;;;;5063993;28;27420;-45
2020/12/22 10:20:54;;;;;;;0.40;0.40;;;12.10;92.80;;;;;;5064240;28;27397;-49
2020/12/22 10:23:39;;;;;;;1.00;0.60;;;12.10;93.20;;;;;;5063775;28;28045;-49
2020/12/22 10:26:25;;;;;;;1.35;0.65;;;12.10;92.60;;;;;;5063820;28;27421;-45
2020/12/22 10:29:10;;;;;;;1.95;0.88;;;12.20;92.70;;;;;;5064090;28;27459;-45
2020/12/22 10:31:55;;;;;;;3.17;0.85;;;12.20;92.70;;;;;;5064023;28;27471;-46
2020/12/22 10:34:40;;;;;;;0.55;0.55;;;12.20;92.60;;;;;;5063968;28;27464;-46
2020/12/22 10:37:24;;;;;;;2.10;1.40;;;12.20;92.70;;;;;;5063262;28;27464;-45
2020/12/22 10:40:09;;;;;;;0.85;0.80;;;12.20;92.80;;;;;;5063907;28;27388;-45
2020/12/22 10:42:53;;;;;;;1.83;0.80;;;12.20;92.70;;;;;;5063863;28;27345;-46
2020/12/22 10:45:38;;;;;;;0.98;0.80;;;12.20;92.80;;;;;;5063146;28;27474;-48
2020/12/22 10:48:23;;;;;;;3.33;0.98;;;12.20;92.70;;;;;;5063441;28;27491;-45
2020/12/22 10:51:07;;;;;;;0.95;0.60;;;12.30;92.80;;;;;;5063467;28;27380;-45
2020/12/22 10:53:52;;;;;;;0.75;0.70;;;12.30;92.80;;;;;;5061227;28;27359;-46
2020/12/22 10:56:37;;;;;;;0.82;0.80;;;12.20;92.80;;;;;;5083663;28;27415;-49
2020/12/22 10:59:21;;;;;;;0.70;0.60;;;12.30;92.90;;;;;;5083467;28;27533;-45
2020/12/22 11:02:06;;;;;;;0.90;0.80;;;12.30;92.90;;;;;;5083916;28;27399;-46
2020/12/22 11:04:54;;;;;;;0.80;0.80;;;12.30;93.00;;;;;;5083954;28;27399;-45
2020/12/22 11:07:49;;;;;;;0.73;0.57;;;12.30;93.00;;;;;;5087285;28;27434;-46
2020/12/22 11:10:35;;;;;;;0.88;0.80;;;12.30;92.90;;;;;;5086570;28;27452;-47
2020/12/22 11:13:20;;;;;;;3.05;0.68;;;12.40;92.90;;;;;;5087044;28;27415;-46
2020/12/22 11:16:06;;;;;;;0.95;0.70;;;12.40;92.80;;;;;;5086750;28;27481;-46
2020/12/22 11:18:51;;;;;;;1.63;0.60;;;12.50;92.70;;;;;;5087130;28;27403;-44
2020/12/22 11:21:36;;;;;;;2.10;0.90;;;12.60;92.70;;;;;;5087095;28;27423;-46
2020/12/22 11:24:21;;;;;;;0.93;0.75;;;12.70;92.30;;;;;;5087040;28;27466;-46
2020/12/22 11:27:05;;;;;;;0.80;0.65;;;12.70;92.20;;;;;;5087012;28;27414;-47
2020/12/22 11:29:49;;;;;;;1.08;0.80;;;12.80;92.00;;;;;;5086933;28;28071;-45
2020/12/22 11:32:35;;;;;;;2.22;0.68;;;12.80;92.10;;;;;;5086823;28;27480;-45
2020/12/22 11:35:19;;;;;;;0.73;0.70;;;12.80;92.10;;;;;;5086646;28;27489;-46
2020/12/22 11:38:04;;;;;;;1.00;0.70;;;12.80;92.20;;;;;;5086082;28;27478;-45
2020/12/22 11:40:48;;;;;;;2.00;0.65;;;12.80;92.10;;;;;;5086465;28;27481;-46
2020/12/22 11:43:33;;;;;;;0.73;0.65;;;12.80;92.30;;;;;;5086142;28;27419;-45
2020/12/22 11:46:20;;;;;;;0.80;0.70;;;12.70;92.50;;;;;;5086803;28;27482;-44
2020/12/22 11:49:05;;;;;;;4.07;0.95;;;12.60;92.50;;;;;;5086691;28;27419;-44
2020/12/22 11:51:55;;;;;;;1.67;0.73;;;12.60;92.70;;;;;;5086691;28;27442;-45
2020/12/22 11:54:40;;;;;;;1.88;0.90;;;12.50;93.00;;;;;;5069546;28;27409;-45
2020/12/22 11:57:25;;;;;;;1.02;0.90;;;12.50;93.10;;;;;;5065983;28;27479;-45
2020/12/22 12:00:09;;;;;;;4.03;0.95;;;12.40;93.20;;;;;;5051120;28;27329;-44
2020/12/22 12:02:54;;;;;;;3.30;2.08;;;12.40;93.30;;;;;;5066146;28;27337;-44
2020/12/22 12:05:40;;;;;;;3.88;0.90;;;12.40;93.30;;;;;;5065879;28;27344;-43
2020/12/22 12:08:24;;;;;;;2.13;1.13;;;12.40;93.20;;;;;;5047861;28;27440;-44
2020/12/22 12:11:09;;;;;;;1.13;0.90;;;12.40;93.20;;;;;;5065448;28;27341;-46
2020/12/22 12:13:54;;;;;;;1.35;0.80;;;12.40;93.30;;;;;;5065673;28;27869;-45
2020/12/22 12:16:38;;;;;;;0.73;0.70;;;12.40;93.20;;;;;;5064908;28;27435;-44
2020/12/22 12:19:23;;;;;;;1.02;0.82;;;12.50;93.10;;;;;;5065739;28;27396;-44
2020/12/22 12:22:07;;;;;;;0.85;0.80;;;12.50;93.00;;;;;;5065846;28;27462;-46
2020/12/22 12:24:52;;;;;;;1.38;0.82;;;12.60;93.00;;;;;;5065517;28;27861;-45
2020/12/22 12:27:36;;;;;;;1.00;0.80;;;12.60;92.80;;;;;;5050387;28;27478;-46
2020/12/22 12:30:21;;;;;;;1.17;1.08;;;12.60;93.00;;;;;;5062548;28;27390;-44
2020/12/22 12:33:05;;;;;;;1.67;0.90;;;12.60;92.80;;;;;;5065728;28;27439;-45
2020/12/22 12:35:50;;;;;;;0.90;0.75;;;12.60;92.80;;;;;;5065099;28;27410;-45
2020/12/22 12:38:34;;;;;;;1.20;0.77;;;12.70;92.90;;;;;;5065639;28;27516;-45
2020/12/22 12:41:19;;;;;;;1.40;0.93;;;12.70;92.80;;;;;;5062439;28;27444;-45
2020/12/22 12:44:04;;;;;;;3.15;1.00;;;12.70;92.80;;;;;;5065251;28;27448;-45
2020/12/22 12:46:52;;;;;;;2.15;0.93;;;12.70;92.80;;;;;;5065197;28;27488;-46
2020/12/22 12:49:38;;;;;;;1.48;0.95;;;12.70;92.80;;;;;;5065173;28;27432;-45
2020/12/22 12:52:22;;;;;;;2.00;1.08;;;12.70;92.80;;;;;;5065457;28;27418;-46
2020/12/22 12:55:07;;;;;;;2.15;0.95;;;12.60;92.80;;;;;;5069184;28;27683;-46
2020/12/22 12:57:51;;;;;;;1.85;0.90;;;12.60;93.00;;;;;;5084969;28;27516;-45
2020/12/22 13:00:36;;;;;;;1.63;1.33;;;12.60;93.10;;;;;;5085174;28;27456;-44
2020/12/22 13:03:21;;;;;;;1.50;0.88;;;12.60;93.20;;;;;;5084695;28;27415;-46
2020/12/22 13:06:06;;;;;;;2.95;0.90;;;12.60;93.20;;;;;;5085279;28;26901;-45
2020/12/22 13:08:51;;;;;;;1.20;0.98;;;12.60;93.30;;;;;;5085378;28;27421;-45
2020/12/22 13:11:35;;;;;;;1.23;1.13;;;12.70;93.10;;;;;;5085310;28;27477;-47
2020/12/22 13:14:19;;;;;;;1.30;0.90;;;12.70;93.20;;;;;;5085312;28;27469;-47
2020/12/22 13:17:05;;;;;;;1.05;0.85;;;12.70;93.10;;;;;;5084754;28;27428;-46
2020/12/22 13:19:50;;;;;;;1.23;0.90;;;12.70;93.10;;;;;;5084903;28;27965;-45
2020/12/22 13:22:34;;;;;;;2.05;1.30;;;12.70;93.00;;;;;;5085150;28;27431;-45
2020/12/22 13:25:19;;;;;;;3.33;1.25;;;12.70;93.20;;;;;;5085245;28;27453;-45
2020/12/22 13:28:03;;;;;;;1.90;1.20;;;12.70;93.20;;;;;;5085071;28;27458;-47
2020/12/22 13:30:47;;;;;;;2.13;1.20;;;12.70;93.10;;;;;;5084204;28;27331;-46
2020/12/22 13:33:32;;;;;;;3.25;1.30;;;12.70;93.10;;;;;;5085034;28;27337;-49
2020/12/22 13:36:16;;;;;;;3.10;1.27;;;12.70;93.20;;;;;;5084950;28;27351;-45
2020/12/22 13:39:01;;;;;;;1.80;1.30;;;12.60;93.20;;;;;;5084705;28;27364;-45
2020/12/22 13:41:46;;;;;;;1.77;1.27;;;12.60;93.30;;;;;;5084552;28;27849;-49
2020/12/22 13:44:31;;;;;;;2.45;1.90;;;12.60;93.30;;;;;;5084769;28;27390;-47
2020/12/22 13:47:15;;;;;;;1.80;1.50;;;12.60;93.60;;;;;;5084396;28;27375;-44
2020/12/22 13:50:00;;;;;;;1.98;1.75;;;12.60;93.70;;;;;;5084718;28;27316;-45
2020/12/22 13:52:44;;;;;;;2.15;1.65;;;12.60;93.40;;;;;;5084109;28;27849;-45
2020/12/22 13:55:29;;;;;;;1.90;1.30;;;12.70;93.50;;;;;;5063923;28;27495;-44
2020/12/22 13:58:15;;;;;;;2.60;1.90;;;12.70;93.40;;;;;;5063551;28;27334;-45
2020/12/22 14:01:00;;;;;;;2.42;1.77;;;12.70;93.30;;;;;;5061218;28;27391;-45
2020/12/22 14:03:45;;;;;;;2.13;1.60;;;12.70;93.20;;;;;;5064093;28;27318;-45
2020/12/22 14:06:29;;;;;;;4.75;2.00;;;12.70;93.40;;;;;;5064056;28;27340;-44
2020/12/22 14:09:14;;;;;;;2.80;1.40;;;12.70;93.50;;;;;;5064053;28;27388;-44
2020/12/22 14:11:59;;;;;;;2.47;1.40;;;12.70;93.50;;;;;;5064010;28;27322;-43
2020/12/22 14:14:44;;;;;;;2.17;1.40;;;12.70;93.50;;;;;;5049150;28;27387;-44
2020/12/22 14:17:28;;;;;;;2.58;1.58;;;12.60;93.30;;;;;;5063465;28;27424;-44
2020/12/22 14:20:12;;;;;;;2.10;1.90;;;12.60;93.40;;;;;;5064071;28;27470;-45
2020/12/22 14:22:57;;;;;;;3.13;1.83;;;12.60;93.50;;;;;;5064045;28;27396;-46
2020/12/22 14:25:42;;;;;;;2.58;1.75;;;12.60;93.60;;;;;;5060728;28;27922;-46
2020/12/22 14:28:26;;;;;;;2.20;1.70;;;12.50;93.60;;;;;;5048851;28;27434;-46